createdAt,value
2023-05-19T00:00:10.064Z,8.60
2023-05-19T00:00:19.484Z,8.60
2023-05-19T00:00:28.900Z,8.60
2023-05-19T00:00:38.270Z,8.60
2023-05-19T00:00:50.040Z,8.60
2023-05-19T00:00:57.109Z,8.60
2023-05-19T00:01:15.906Z,8.60
2023-05-19T00:01:25.292Z,8.50
2023-05-19T00:01:34.715Z,8.50
2023-05-19T00:01:44.136Z,8.50
2023-05-19T00:01:53.552Z,8.60
2023-05-19T00:02:02.912Z,8.50
2023-05-19T00:02:21.744Z,8.50
2023-05-19T00:02:31.157Z,8.50
2023-05-19T00:02:40.624Z,8.60
2023-05-19T00:02:49.985Z,8.50
2023-05-19T00:02:59.354Z,8.60
2023-05-19T00:03:08.764Z,8.60
2023-05-19T00:03:27.536Z,8.60
2023-05-19T00:03:36.901Z,8.50
2023-05-19T00:03:46.252Z,8.60
2023-05-19T00:03:55.655Z,8.50
2023-05-19T00:04:05.076Z,8.50
2023-05-19T00:04:14.477Z,8.60
2023-05-19T00:04:33.266Z,8.50
2023-05-19T00:04:42.646Z,8.50
2023-05-19T00:04:52.064Z,8.50
2023-05-19T00:05:01.448Z,8.50
2023-05-19T00:05:10.855Z,8.50
2023-05-19T00:05:20.415Z,8.50
2023-05-19T00:05:39.158Z,8.50
2023-05-19T00:05:48.488Z,8.50
2023-05-19T00:05:57.844Z,8.50
2023-05-19T00:06:07.489Z,8.50
2023-05-19T00:06:16.852Z,8.50
2023-05-19T00:06:26.102Z,8.50
2023-05-19T00:06:44.968Z,8.50
2023-05-19T00:06:54.376Z,8.50
2023-05-19T00:07:03.776Z,8.50
2023-05-19T00:07:13.164Z,8.50
2023-05-19T00:07:22.544Z,8.50
2023-05-19T00:07:31.967Z,8.60
2023-05-19T00:07:50.749Z,8.50
2023-05-19T00:08:00.228Z,8.50
2023-05-19T00:08:09.563Z,8.50
2023-05-19T00:08:18.973Z,8.50
2023-05-19T00:08:28.360Z,8.50
2023-05-19T00:08:37.754Z,8.50
2023-05-19T00:08:56.562Z,8.50
2023-05-19T00:09:05.962Z,8.50
2023-05-19T00:09:15.350Z,8.50
2023-05-19T00:09:24.771Z,8.50
2023-05-19T00:09:34.155Z,8.50
2023-05-19T00:09:43.541Z,8.50
2023-05-19T00:10:02.390Z,8.60
2023-05-19T00:10:11.772Z,8.50
2023-05-19T00:10:21.173Z,8.50
2023-05-19T00:10:30.784Z,8.50
2023-05-19T00:10:39.999Z,8.50
2023-05-19T00:10:49.420Z,8.50
2023-05-19T00:11:08.182Z,8.50
2023-05-19T00:11:17.590Z,8.50
2023-05-19T00:11:27.006Z,8.50
2023-05-19T00:11:36.409Z,8.50
2023-05-19T00:11:45.824Z,8.50
2023-05-19T00:12:22.641Z,8.50
2023-05-19T00:12:32.113Z,8.50
2023-05-19T00:12:41.502Z,8.50
2023-05-19T00:12:52.460Z,8.50
2023-05-19T00:13:00.309Z,8.50
2023-05-19T00:13:09.688Z,8.50
2023-05-19T00:13:28.493Z,8.50
2023-05-19T00:13:37.883Z,8.50
2023-05-19T00:13:47.285Z,8.50
2023-05-19T00:13:56.745Z,8.50
2023-05-19T00:14:06.133Z,8.50
2023-05-19T00:14:15.534Z,8.40
2023-05-19T00:14:34.304Z,8.40
2023-05-19T00:14:43.687Z,8.40
2023-05-19T00:14:53.097Z,8.40
2023-05-19T00:15:02.527Z,8.40
2023-05-19T00:15:11.941Z,8.40
2023-05-19T00:15:21.331Z,8.40
2023-05-19T00:15:40.217Z,8.30
2023-05-19T00:15:49.572Z,8.30
2023-05-19T00:15:58.986Z,8.30
2023-05-19T00:16:08.389Z,8.20
2023-05-19T00:16:17.807Z,8.20
2023-05-19T00:16:27.181Z,8.20
2023-05-19T00:16:46.480Z,8.20
2023-05-19T00:16:55.878Z,8.10
2023-05-19T00:17:05.273Z,8.10
2023-05-19T00:17:14.701Z,8.10
2023-05-19T00:17:24.100Z,8.10
2023-05-19T00:17:33.549Z,8.00
2023-05-19T00:17:52.389Z,8.00
2023-05-19T00:18:01.801Z,8.00
2023-05-19T00:18:11.101Z,7.90
2023-05-19T00:18:20.499Z,7.90
2023-05-19T00:18:29.967Z,7.90
2023-05-19T00:18:39.335Z,7.90
2023-05-19T00:18:58.184Z,7.80
2023-05-19T00:19:07.586Z,7.80
2023-05-19T00:19:17.156Z,7.80
2023-05-19T00:19:26.571Z,7.80
2023-05-19T00:19:35.818Z,7.70
2023-05-19T00:19:45.323Z,7.70
2023-05-19T00:20:04.034Z,7.70
2023-05-19T00:20:13.417Z,7.60
2023-05-19T00:20:22.822Z,7.60
2023-05-19T00:20:32.426Z,7.60
2023-05-19T00:20:41.634Z,7.60
2023-05-19T00:20:51.051Z,7.60
2023-05-19T00:21:09.869Z,7.50
2023-05-19T00:21:19.288Z,7.50
2023-05-19T00:21:28.752Z,7.50
2023-05-19T00:21:38.134Z,7.50
2023-05-19T00:21:47.561Z,7.50
2023-05-19T00:21:56.971Z,7.40
2023-05-19T00:22:15.752Z,7.40
2023-05-19T00:22:25.128Z,7.40
2023-05-19T00:22:34.514Z,7.40
2023-05-19T00:22:43.919Z,7.50
2023-05-19T00:22:53.331Z,7.30
2023-05-19T00:23:02.758Z,7.30
2023-05-19T00:23:21.571Z,7.30
2023-05-19T00:23:30.975Z,7.30
2023-05-19T00:23:40.375Z,7.30
2023-05-19T00:23:49.803Z,7.30
2023-05-19T00:23:59.201Z,7.20
2023-05-19T00:24:08.606Z,7.20
2023-05-19T00:24:27.406Z,7.20
2023-05-19T00:24:36.801Z,7.20
2023-05-19T00:24:46.181Z,7.20
2023-05-19T00:24:55.636Z,7.20
2023-05-19T00:25:05.026Z,7.30
2023-05-19T00:25:14.480Z,7.10
2023-05-19T00:25:33.274Z,7.10
2023-05-19T00:25:42.676Z,7.10
2023-05-19T00:25:52.184Z,7.10
2023-05-19T00:26:01.525Z,7.10
2023-05-19T00:26:10.907Z,7.10
2023-05-19T00:26:20.327Z,7.10
2023-05-19T00:26:39.216Z,7.00
2023-05-19T00:26:48.627Z,7.10
2023-05-19T00:26:58.048Z,7.00
2023-05-19T00:27:07.419Z,7.00
2023-05-19T00:27:16.820Z,7.00
2023-05-19T00:27:26.189Z,7.00
2023-05-19T00:27:44.997Z,7.00
2023-05-19T00:27:54.390Z,7.00
2023-05-19T00:28:03.796Z,7.00
2023-05-19T00:28:13.190Z,7.00
2023-05-19T00:28:22.602Z,7.00
2023-05-19T00:28:32.031Z,7.00
2023-05-19T00:28:50.804Z,6.90
2023-05-19T00:29:00.191Z,6.90
2023-05-19T00:29:09.585Z,6.90
2023-05-19T00:29:18.949Z,7.00
2023-05-19T00:29:28.327Z,6.90
2023-05-19T00:29:37.708Z,6.90
2023-05-19T00:29:56.524Z,6.90
2023-05-19T00:30:05.947Z,6.90
2023-05-19T00:30:15.370Z,6.90
2023-05-19T00:30:24.758Z,6.90
2023-05-19T00:30:34.410Z,6.90
2023-05-19T00:30:43.557Z,6.90
2023-05-19T00:31:02.370Z,6.90
2023-05-19T00:31:11.789Z,6.90
2023-05-19T00:31:21.289Z,6.90
2023-05-19T00:31:30.770Z,6.90
2023-05-19T00:31:40.314Z,6.90
2023-05-19T00:31:49.716Z,7.00
2023-05-19T00:32:08.651Z,7.00
2023-05-19T00:32:17.951Z,7.00
2023-05-19T00:32:27.321Z,7.00
2023-05-19T00:32:36.699Z,7.00
2023-05-19T00:32:46.126Z,7.00
2023-05-19T00:32:55.533Z,7.00
2023-05-19T00:33:14.296Z,7.00
2023-05-19T00:33:23.698Z,7.00
2023-05-19T00:33:33.136Z,7.00
2023-05-19T00:33:42.583Z,7.00
2023-05-19T00:33:52.044Z,7.00
2023-05-19T00:34:04.597Z,7.00
2023-05-19T00:34:20.771Z,7.00
2023-05-19T00:34:30.139Z,7.00
2023-05-19T00:34:39.523Z,7.00
2023-05-19T00:34:48.909Z,6.90
2023-05-19T00:34:58.328Z,6.90
2023-05-19T00:35:07.715Z,6.90
2023-05-19T00:35:26.513Z,7.00
2023-05-19T00:35:35.927Z,6.90
2023-05-19T00:35:45.348Z,6.90
2023-05-19T00:35:54.766Z,6.90
2023-05-19T00:36:04.203Z,6.90
2023-05-19T00:36:13.582Z,6.90
2023-05-19T00:36:32.414Z,6.90
2023-05-19T00:36:41.862Z,6.90
2023-05-19T00:36:51.253Z,6.90
2023-05-19T00:37:00.638Z,6.90
2023-05-19T00:37:10.079Z,6.90
2023-05-19T00:37:19.478Z,6.80
2023-05-19T00:37:38.286Z,6.80
2023-05-19T00:37:47.679Z,6.90
2023-05-19T00:37:57.085Z,6.80
2023-05-19T00:38:06.474Z,6.80
2023-05-19T00:38:15.909Z,6.80
2023-05-19T00:38:25.342Z,6.80
2023-05-19T00:38:44.122Z,6.80
2023-05-19T00:38:53.556Z,6.80
2023-05-19T00:39:02.941Z,6.80
2023-05-19T00:39:12.348Z,6.80
2023-05-19T00:39:21.769Z,6.80
2023-05-19T00:39:31.153Z,6.80
2023-05-19T00:39:49.950Z,6.80
2023-05-19T00:39:59.335Z,6.70
2023-05-19T00:40:08.754Z,6.60
2023-05-19T00:40:18.154Z,6.80
2023-05-19T00:40:27.560Z,6.70
2023-05-19T00:40:36.997Z,6.80
2023-05-19T00:40:55.783Z,6.70
2023-05-19T00:41:05.210Z,6.70
2023-05-19T00:41:14.594Z,6.70
2023-05-19T00:41:23.986Z,6.70
2023-05-19T00:41:33.438Z,6.70
2023-05-19T00:41:42.841Z,6.70
2023-05-19T00:42:01.642Z,6.70
2023-05-19T00:42:10.993Z,6.70
2023-05-19T00:42:20.372Z,6.70
2023-05-19T00:42:29.774Z,6.70
2023-05-19T00:42:39.211Z,6.70
2023-05-19T00:42:48.621Z,6.70
2023-05-19T00:43:07.414Z,6.70
2023-05-19T00:43:16.813Z,6.70
2023-05-19T00:43:26.199Z,6.70
2023-05-19T00:43:35.586Z,6.70
2023-05-19T00:43:45.003Z,6.80
2023-05-19T00:43:54.370Z,6.80
2023-05-19T00:44:13.203Z,6.80
2023-05-19T00:44:22.619Z,6.80
2023-05-19T00:44:32.085Z,6.80
2023-05-19T00:44:41.478Z,6.90
2023-05-19T00:44:50.893Z,6.90
2023-05-19T00:45:00.279Z,6.90
2023-05-19T00:45:19.095Z,6.90
2023-05-19T00:45:28.507Z,7.00
2023-05-19T00:45:37.892Z,7.00
2023-05-19T00:45:47.276Z,7.00
2023-05-19T00:45:56.671Z,7.00
2023-05-19T00:46:06.220Z,7.00
2023-05-19T00:46:24.862Z,7.10
2023-05-19T00:46:34.315Z,7.10
2023-05-19T00:46:43.667Z,7.10
2023-05-19T00:46:53.007Z,7.10
2023-05-19T00:47:02.692Z,7.20
2023-05-19T00:47:11.794Z,7.20
2023-05-19T00:47:30.678Z,7.20
2023-05-19T00:47:40.090Z,7.30
2023-05-19T00:47:49.569Z,7.30
2023-05-19T00:47:58.893Z,7.30
2023-05-19T00:48:08.313Z,7.30
2023-05-19T00:48:17.634Z,7.30
2023-05-19T00:48:36.449Z,7.40
2023-05-19T00:48:45.850Z,7.40
2023-05-19T00:48:55.282Z,7.40
2023-05-19T00:49:04.660Z,7.40
2023-05-19T00:49:14.047Z,7.40
2023-05-19T00:49:23.426Z,7.40
2023-05-19T00:49:42.198Z,7.50
2023-05-19T00:49:51.600Z,7.50
2023-05-19T00:50:00.998Z,7.50
2023-05-19T00:50:10.383Z,7.50
2023-05-19T00:50:19.804Z,7.50
2023-05-19T00:50:29.254Z,7.50
2023-05-19T00:50:47.952Z,7.60
2023-05-19T00:50:57.359Z,7.60
2023-05-19T00:51:06.861Z,7.60
2023-05-19T00:51:16.141Z,7.60
2023-05-19T00:51:25.560Z,7.60
2023-05-19T00:51:34.961Z,7.60
2023-05-19T00:51:53.771Z,7.60
2023-05-19T00:52:03.196Z,7.60
2023-05-19T00:52:12.622Z,7.70
2023-05-19T00:52:22.032Z,7.70
2023-05-19T00:52:31.431Z,7.70
2023-05-19T00:52:40.827Z,7.70
2023-05-19T00:52:59.623Z,7.70
2023-05-19T00:53:09.002Z,7.70
2023-05-19T00:53:18.401Z,7.70
2023-05-19T00:53:27.825Z,7.70
2023-05-19T00:53:37.208Z,7.80
2023-05-19T00:53:46.668Z,7.80
2023-05-19T00:54:05.451Z,7.80
2023-05-19T00:54:14.824Z,7.80
2023-05-19T00:54:24.252Z,7.80
2023-05-19T00:54:33.629Z,7.80
2023-05-19T00:54:43.009Z,7.80
2023-05-19T00:54:52.389Z,7.80
2023-05-19T00:55:11.170Z,7.80
2023-05-19T00:55:20.572Z,7.80
2023-05-19T00:55:29.952Z,7.80
2023-05-19T00:55:39.342Z,7.80
2023-05-19T00:55:48.749Z,7.90
2023-05-19T00:55:58.130Z,7.90
2023-05-19T00:56:17.001Z,7.90
2023-05-19T00:56:26.321Z,7.90
2023-05-19T00:56:35.738Z,7.90
2023-05-19T00:56:45.114Z,7.90
2023-05-19T00:56:54.505Z,7.90
2023-05-19T00:57:03.910Z,7.90
2023-05-19T00:57:22.639Z,7.90
2023-05-19T00:57:32.082Z,7.90
2023-05-19T00:57:41.529Z,7.90
2023-05-19T00:57:50.912Z,7.90
2023-05-19T00:58:00.296Z,7.90
2023-05-19T00:58:09.710Z,7.90
2023-05-19T00:58:28.485Z,7.90
2023-05-19T00:58:37.910Z,7.90
2023-05-19T00:58:47.320Z,7.90
2023-05-19T00:58:56.732Z,7.90
2023-05-19T00:59:06.118Z,8.00
2023-05-19T00:59:15.572Z,7.90
2023-05-19T00:59:34.330Z,7.90
2023-05-19T00:59:43.764Z,7.90
2023-05-19T00:59:53.150Z,7.90
2023-05-19T01:00:02.561Z,7.90
2023-05-19T01:00:11.992Z,7.90
2023-05-19T01:00:21.388Z,7.90
2023-05-19T01:00:40.208Z,7.90
2023-05-19T01:00:49.623Z,8.00
2023-05-19T01:00:59.043Z,8.00
2023-05-19T01:01:08.555Z,8.00
2023-05-19T01:01:17.875Z,8.00
2023-05-19T01:01:27.399Z,8.00
2023-05-19T01:01:46.081Z,8.00
2023-05-19T01:01:55.478Z,8.00
2023-05-19T01:02:04.854Z,8.00
2023-05-19T01:02:14.237Z,8.00
2023-05-19T01:02:23.726Z,8.00
2023-05-19T01:02:33.116Z,8.00
2023-05-19T01:02:51.994Z,8.00
2023-05-19T01:03:01.407Z,8.00
2023-05-19T01:03:10.836Z,8.00
2023-05-19T01:03:20.176Z,8.00
2023-05-19T01:03:29.599Z,8.00
2023-05-19T01:03:39.042Z,8.00
2023-05-19T01:03:57.792Z,8.00
2023-05-19T01:04:07.219Z,8.00
2023-05-19T01:04:16.541Z,8.00
2023-05-19T01:04:25.946Z,8.00
2023-05-19T01:04:35.358Z,8.00
2023-05-19T01:04:44.729Z,8.00
2023-05-19T01:05:03.524Z,8.00
2023-05-19T01:05:12.916Z,8.00
2023-05-19T01:05:22.306Z,8.00
2023-05-19T01:05:31.697Z,8.00
2023-05-19T01:05:41.076Z,8.00
2023-05-19T01:05:50.487Z,8.00
2023-05-19T01:06:09.289Z,7.80
2023-05-19T01:06:18.739Z,8.00
2023-05-19T01:06:28.112Z,8.00
2023-05-19T01:06:37.533Z,8.00
2023-05-19T01:06:46.973Z,8.00
2023-05-19T01:06:56.371Z,8.00
2023-05-19T01:07:15.173Z,8.00
2023-05-19T01:07:24.565Z,8.00
2023-05-19T01:07:33.966Z,8.00
2023-05-19T01:07:43.346Z,8.00
2023-05-19T01:07:52.714Z,8.00
2023-05-19T01:08:02.128Z,8.00
2023-05-19T01:08:20.936Z,8.00
2023-05-19T01:08:30.340Z,8.00
2023-05-19T01:08:39.739Z,8.00
2023-05-19T01:08:49.132Z,8.00
2023-05-19T01:08:58.526Z,8.00
2023-05-19T01:09:07.931Z,8.00
2023-05-19T01:09:26.745Z,8.00
2023-05-19T01:09:36.131Z,8.00
2023-05-19T01:09:45.543Z,8.00
2023-05-19T01:09:54.934Z,8.00
2023-05-19T01:10:04.335Z,8.00
2023-05-19T01:10:13.725Z,8.00
2023-05-19T01:10:32.776Z,8.00
2023-05-19T01:10:41.943Z,8.00
2023-05-19T01:10:51.365Z,8.00
2023-05-19T01:11:00.779Z,8.00
2023-05-19T01:11:10.267Z,8.00
2023-05-19T01:11:19.641Z,8.00
2023-05-19T01:11:38.439Z,8.00
2023-05-19T01:11:47.823Z,8.00
2023-05-19T01:11:57.212Z,8.00
2023-05-19T01:12:06.651Z,8.00
2023-05-19T01:12:16.075Z,8.00
2023-05-19T01:12:25.477Z,8.00
2023-05-19T01:12:44.296Z,8.00
2023-05-19T01:12:53.681Z,8.00
2023-05-19T01:13:03.069Z,8.00
2023-05-19T01:13:12.465Z,8.00
2023-05-19T01:13:21.900Z,8.00
2023-05-19T01:13:31.270Z,8.00
2023-05-19T01:13:50.070Z,8.00
2023-05-19T01:13:59.464Z,8.00
2023-05-19T01:14:08.894Z,8.00
2023-05-19T01:14:18.300Z,8.00
2023-05-19T01:14:27.686Z,8.00
2023-05-19T01:14:37.106Z,8.00
2023-05-19T01:14:55.897Z,8.00
2023-05-19T01:15:05.275Z,8.00
2023-05-19T01:15:14.737Z,8.00
2023-05-19T01:15:24.136Z,8.00
2023-05-19T01:15:33.521Z,8.00
2023-05-19T01:15:42.902Z,8.00
2023-05-19T01:16:01.742Z,8.00
2023-05-19T01:16:11.123Z,8.00
2023-05-19T01:16:20.527Z,8.00
2023-05-19T01:16:29.891Z,8.00
2023-05-19T01:16:39.325Z,8.00
2023-05-19T01:16:48.884Z,8.00
2023-05-19T01:17:07.508Z,8.00
2023-05-19T01:17:16.871Z,8.00
2023-05-19T01:17:26.325Z,8.00
2023-05-19T01:17:35.669Z,8.00
2023-05-19T01:17:45.125Z,8.00
2023-05-19T01:17:54.452Z,8.00
2023-05-19T01:18:13.373Z,8.00
2023-05-19T01:18:22.707Z,8.00
2023-05-19T01:18:32.091Z,8.00
2023-05-19T01:18:41.528Z,8.00
2023-05-19T01:18:50.942Z,8.00
2023-05-19T01:19:00.339Z,8.00
2023-05-19T01:19:19.187Z,8.00
2023-05-19T01:19:28.449Z,8.00
2023-05-19T01:19:37.832Z,8.00
2023-05-19T01:19:47.316Z,8.00
2023-05-19T01:19:56.713Z,8.00
2023-05-19T01:20:06.159Z,8.00
2023-05-19T01:20:24.910Z,8.00
2023-05-19T01:20:34.390Z,8.00
2023-05-19T01:20:43.701Z,8.00
2023-05-19T01:20:53.094Z,8.00
2023-05-19T01:21:02.529Z,8.00
2023-05-19T01:21:11.930Z,8.00
2023-05-19T01:21:30.745Z,8.00
2023-05-19T01:21:40.215Z,8.00
2023-05-19T01:21:49.608Z,8.00
2023-05-19T01:21:59.074Z,8.00
2023-05-19T01:22:08.468Z,8.00
2023-05-19T01:22:18.434Z,8.00
2023-05-19T01:28:10.583Z,7.70
2023-05-19T01:29:26.189Z,7.50
2023-05-19T01:30:34.008Z,7.40
2023-05-19T01:31:49.317Z,7.20
2023-05-19T01:32:50.579Z,7.10
2023-05-19T01:32:59.864Z,7.10
2023-05-19T01:33:09.388Z,7.10
2023-05-19T01:33:18.669Z,7.10
2023-05-19T01:33:28.111Z,7.00
2023-05-19T01:33:37.506Z,7.00
2023-05-19T01:33:56.328Z,7.00
2023-05-19T01:34:05.738Z,7.00
2023-05-19T01:34:15.129Z,6.90
2023-05-19T01:34:24.536Z,6.90
2023-05-19T01:34:33.937Z,6.90
2023-05-19T01:34:43.308Z,6.90
2023-05-19T01:35:02.076Z,6.90
2023-05-19T01:35:11.478Z,6.80
2023-05-19T01:35:20.855Z,6.80
2023-05-19T01:35:30.252Z,6.80
2023-05-19T01:35:39.633Z,6.80
2023-05-19T01:35:49.033Z,6.80
2023-05-19T01:36:07.833Z,6.80
2023-05-19T01:36:17.249Z,6.80
2023-05-19T01:36:26.628Z,6.70
2023-05-19T01:36:35.999Z,6.70
2023-05-19T01:36:45.394Z,6.80
2023-05-19T01:36:54.784Z,6.70
2023-05-19T01:37:13.576Z,6.70
2023-05-19T01:37:22.986Z,6.70
2023-05-19T01:37:32.383Z,6.70
2023-05-19T01:37:41.791Z,6.70
2023-05-19T01:37:51.198Z,6.80
2023-05-19T01:38:00.590Z,6.80
2023-05-19T01:38:19.402Z,6.80
2023-05-19T01:38:28.796Z,6.80
2023-05-19T01:38:38.163Z,6.80
2023-05-19T01:38:47.572Z,6.80
2023-05-19T01:38:56.953Z,6.80
2023-05-19T01:39:06.325Z,6.80
2023-05-19T01:39:25.086Z,6.80
2023-05-19T01:39:34.468Z,6.80
2023-05-19T01:39:43.856Z,6.90
2023-05-19T01:39:53.260Z,6.90
2023-05-19T01:40:02.668Z,6.90
2023-05-19T01:40:12.095Z,6.90
2023-05-19T01:40:31.199Z,6.90
2023-05-19T01:40:40.334Z,6.90
2023-05-19T01:40:49.714Z,7.00
2023-05-19T01:40:59.168Z,7.00
2023-05-19T01:41:08.600Z,7.00
2023-05-19T01:41:18.008Z,7.00
2023-05-19T01:41:36.787Z,7.00
2023-05-19T01:41:46.177Z,7.00
2023-05-19T01:41:55.547Z,7.00
2023-05-19T01:42:04.959Z,7.10
2023-05-19T01:42:14.333Z,7.10
2023-05-19T01:42:23.726Z,7.10
2023-05-19T01:42:42.519Z,7.10
2023-05-19T01:42:51.914Z,7.10
2023-05-19T01:43:01.342Z,7.10
2023-05-19T01:43:10.735Z,7.10
2023-05-19T01:43:20.293Z,7.10
2023-05-19T01:43:29.541Z,7.20
2023-05-19T01:43:48.411Z,7.20
2023-05-19T01:43:57.790Z,7.20
2023-05-19T01:44:07.177Z,7.20
2023-05-19T01:44:16.557Z,7.20
2023-05-19T01:44:25.962Z,7.20
2023-05-19T01:44:35.332Z,7.20
2023-05-19T01:44:54.130Z,7.30
2023-05-19T01:45:03.541Z,7.30
2023-05-19T01:45:12.926Z,7.20
2023-05-19T01:45:22.313Z,7.30
2023-05-19T01:45:31.750Z,7.30
2023-05-19T01:45:41.149Z,7.30
2023-05-19T01:45:59.934Z,7.30
2023-05-19T01:46:09.323Z,7.30
2023-05-19T01:46:18.766Z,7.30
2023-05-19T01:46:28.258Z,7.30
2023-05-19T01:46:37.474Z,7.30
2023-05-19T01:46:46.824Z,7.40
2023-05-19T01:47:05.630Z,7.40
2023-05-19T01:47:15.034Z,7.40
2023-05-19T01:47:24.445Z,7.40
2023-05-19T01:47:33.835Z,7.40
2023-05-19T01:47:43.274Z,7.40
2023-05-19T01:47:52.670Z,7.40
2023-05-19T01:48:11.522Z,7.40
2023-05-19T01:48:20.876Z,7.40
2023-05-19T01:48:30.250Z,7.40
2023-05-19T01:48:39.664Z,7.40
2023-05-19T01:48:49.055Z,7.40
2023-05-19T01:48:58.458Z,7.40
2023-05-19T01:49:17.246Z,7.50
2023-05-19T01:49:26.662Z,7.50
2023-05-19T01:49:36.078Z,7.40
2023-05-19T01:49:45.479Z,7.40
2023-05-19T01:49:54.884Z,7.50
2023-05-19T01:50:04.277Z,7.50
2023-05-19T01:50:23.059Z,7.50
2023-05-19T01:50:32.829Z,7.50
2023-05-19T01:50:41.909Z,7.50
2023-05-19T01:50:51.307Z,7.50
2023-05-19T01:51:00.712Z,7.50
2023-05-19T01:51:10.093Z,7.50
2023-05-19T01:51:28.880Z,7.50
2023-05-19T01:51:38.269Z,7.50
2023-05-19T01:51:47.679Z,7.50
2023-05-19T01:51:57.075Z,7.50
2023-05-19T01:52:06.464Z,7.50
2023-05-19T01:52:15.850Z,7.50
2023-05-19T01:52:34.628Z,7.50
2023-05-19T01:52:44.029Z,7.50
2023-05-19T01:52:53.420Z,7.50
2023-05-19T01:53:02.839Z,7.50
2023-05-19T01:53:12.188Z,7.50
2023-05-19T01:53:21.588Z,7.50
2023-05-19T01:53:40.384Z,7.50
2023-05-19T01:53:49.783Z,7.60
2023-05-19T01:53:59.174Z,7.60
2023-05-19T01:54:08.568Z,7.60
2023-05-19T01:54:17.978Z,7.50
2023-05-19T01:54:27.390Z,7.60
2023-05-19T01:54:46.143Z,7.60
2023-05-19T01:54:55.536Z,7.60
2023-05-19T01:55:04.936Z,7.60
2023-05-19T01:55:17.024Z,7.60
2023-05-19T01:55:26.466Z,7.60
2023-05-19T01:55:35.878Z,7.60
2023-05-19T01:55:54.831Z,7.60
2023-05-19T01:56:04.351Z,7.60
2023-05-19T01:56:13.748Z,7.60
2023-05-19T01:56:23.154Z,7.60
2023-05-19T01:56:32.627Z,7.60
2023-05-19T01:56:42.078Z,7.60
2023-05-19T01:57:00.856Z,7.60
2023-05-19T01:57:10.239Z,7.60
2023-05-19T01:57:19.644Z,7.60
2023-05-19T01:57:29.024Z,7.60
2023-05-19T01:57:38.425Z,7.60
2023-05-19T01:57:47.834Z,7.60
2023-05-19T01:58:06.657Z,7.60
2023-05-19T01:58:16.039Z,7.60
2023-05-19T01:58:25.452Z,7.60
2023-05-19T01:58:34.805Z,7.60
2023-05-19T01:58:44.206Z,7.60
2023-05-19T01:58:53.636Z,7.60
2023-05-19T01:59:12.423Z,7.60
2023-05-19T01:59:21.800Z,7.70
2023-05-19T01:59:31.180Z,7.60
2023-05-19T01:59:40.561Z,7.60
2023-05-19T01:59:49.974Z,7.60
2023-05-19T01:59:59.383Z,7.60
2023-05-19T02:00:19.363Z,7.60
2023-05-19T02:00:27.545Z,7.60
2023-05-19T02:00:36.930Z,7.60
2023-05-19T02:00:46.284Z,7.60
2023-05-19T02:00:55.671Z,7.60
2023-05-19T02:01:05.089Z,7.60
2023-05-19T02:01:23.877Z,7.60
2023-05-19T02:01:33.298Z,7.60
2023-05-19T02:01:42.783Z,7.60
2023-05-19T02:01:52.089Z,7.60
2023-05-19T02:02:01.465Z,7.60
2023-05-19T02:02:10.847Z,7.60
2023-05-19T02:02:29.692Z,7.70
2023-05-19T02:02:39.061Z,7.60
2023-05-19T02:02:48.479Z,7.60
2023-05-19T02:02:57.872Z,7.70
2023-05-19T02:03:07.308Z,7.60
2023-05-19T02:03:16.621Z,7.70
2023-05-19T02:03:35.397Z,7.60
2023-05-19T02:03:44.805Z,7.60
2023-05-19T02:03:54.233Z,7.60
2023-05-19T02:04:03.687Z,7.60
2023-05-19T02:04:13.084Z,7.60
2023-05-19T02:04:22.473Z,7.60
2023-05-19T02:04:41.341Z,7.60
2023-05-19T02:04:50.722Z,7.60
2023-05-19T02:05:00.061Z,7.60
2023-05-19T02:05:09.451Z,7.60
2023-05-19T02:05:18.835Z,7.60
2023-05-19T02:05:28.246Z,7.60
2023-05-19T02:05:47.036Z,7.60
2023-05-19T02:05:56.458Z,7.70
2023-05-19T02:06:05.836Z,7.60
2023-05-19T02:06:15.250Z,7.60
2023-05-19T02:06:24.641Z,7.60
2023-05-19T02:06:34.026Z,7.60
2023-05-19T02:06:52.779Z,7.60
2023-05-19T02:07:02.240Z,7.60
2023-05-19T02:07:11.566Z,7.60
2023-05-19T02:07:20.963Z,7.60
2023-05-19T02:07:30.366Z,7.60
2023-05-19T02:07:39.767Z,7.60
2023-05-19T02:07:58.620Z,7.60
2023-05-19T02:08:08.012Z,7.60
2023-05-19T02:08:17.408Z,7.60
2023-05-19T02:08:26.802Z,7.60
2023-05-19T02:08:36.243Z,7.60
2023-05-19T02:08:45.624Z,7.60
2023-05-19T02:09:04.429Z,7.60
2023-05-19T02:09:13.802Z,7.60
2023-05-19T02:09:23.249Z,7.60
2023-05-19T02:09:32.674Z,7.70
2023-05-19T02:09:42.104Z,7.60
2023-05-19T02:09:51.472Z,7.60
2023-05-19T02:10:10.234Z,7.60
2023-05-19T02:10:19.628Z,7.60
2023-05-19T02:10:29.047Z,7.60
2023-05-19T02:10:38.397Z,7.60
2023-05-19T02:10:47.772Z,7.60
2023-05-19T02:10:57.160Z,7.60
2023-05-19T02:11:15.980Z,7.60
2023-05-19T02:11:25.393Z,7.60
2023-05-19T02:11:34.773Z,7.60
2023-05-19T02:11:44.161Z,7.60
2023-05-19T02:11:53.549Z,7.60
2023-05-19T02:12:02.947Z,7.60
2023-05-19T02:12:21.737Z,7.60
2023-05-19T02:12:31.123Z,7.60
2023-05-19T02:12:40.519Z,7.60
2023-05-19T02:12:49.944Z,7.60
2023-05-19T02:12:59.325Z,7.60
2023-05-19T02:13:08.757Z,7.60
2023-05-19T02:13:27.542Z,7.60
2023-05-19T02:13:36.908Z,7.60
2023-05-19T02:13:46.291Z,7.60
2023-05-19T02:13:55.669Z,7.60
2023-05-19T02:14:05.103Z,7.60
2023-05-19T02:14:14.480Z,7.60
2023-05-19T02:14:33.278Z,7.70
2023-05-19T02:14:42.708Z,7.60
2023-05-19T02:14:52.103Z,7.60
2023-05-19T02:15:01.486Z,7.60
2023-05-19T02:15:10.902Z,7.60
2023-05-19T02:15:20.279Z,7.60
2023-05-19T02:15:39.117Z,7.60
2023-05-19T02:15:48.512Z,7.60
2023-05-19T02:15:57.910Z,7.60
2023-05-19T02:16:07.330Z,7.60
2023-05-19T02:16:16.741Z,7.60
2023-05-19T02:16:26.203Z,7.60
2023-05-19T02:16:44.819Z,7.60
2023-05-19T02:16:54.253Z,7.60
2023-05-19T02:17:03.642Z,7.60
2023-05-19T02:17:13.027Z,7.60
2023-05-19T02:17:22.552Z,7.60
2023-05-19T02:17:31.930Z,7.60
2023-05-19T02:17:50.962Z,7.60
2023-05-19T02:18:00.171Z,7.60
2023-05-19T02:18:09.471Z,7.60
2023-05-19T02:18:18.867Z,7.60
2023-05-19T02:18:28.260Z,7.60
2023-05-19T02:18:37.703Z,7.60
2023-05-19T02:18:56.501Z,7.60
2023-05-19T02:19:05.856Z,7.60
2023-05-19T02:19:15.254Z,7.60
2023-05-19T02:19:24.742Z,7.60
2023-05-19T02:19:34.009Z,7.60
2023-05-19T02:19:43.409Z,7.60
2023-05-19T02:20:02.236Z,7.60
2023-05-19T02:20:11.616Z,7.60
2023-05-19T02:20:21.013Z,7.60
2023-05-19T02:20:30.643Z,7.60
2023-05-19T02:20:39.890Z,7.60
2023-05-19T02:20:49.268Z,7.60
2023-05-19T02:21:08.042Z,7.60
2023-05-19T02:21:17.435Z,7.60
2023-05-19T02:21:26.818Z,7.60
2023-05-19T02:21:36.268Z,7.60
2023-05-19T02:21:45.688Z,7.60
2023-05-19T02:21:55.109Z,7.60
2023-05-19T02:22:13.893Z,7.60
2023-05-19T02:22:23.266Z,7.50
2023-05-19T02:22:32.637Z,7.60
2023-05-19T02:22:42.034Z,7.60
2023-05-19T02:22:51.455Z,7.60
2023-05-19T02:23:00.834Z,7.60
2023-05-19T02:23:19.690Z,7.60
2023-05-19T02:23:29.084Z,7.60
2023-05-19T02:23:38.486Z,7.60
2023-05-19T02:23:47.943Z,7.60
2023-05-19T02:23:57.341Z,7.60
2023-05-19T02:24:06.739Z,7.60
2023-05-19T02:24:25.531Z,7.60
2023-05-19T02:24:34.910Z,7.60
2023-05-19T02:24:44.303Z,7.60
2023-05-19T02:24:53.693Z,7.60
2023-05-19T02:25:03.089Z,7.60
2023-05-19T02:25:12.482Z,7.60
2023-05-19T02:25:31.251Z,7.60
2023-05-19T02:25:40.645Z,7.60
2023-05-19T02:25:50.029Z,7.60
2023-05-19T02:25:59.431Z,7.60
2023-05-19T02:26:08.814Z,7.60
2023-05-19T02:26:18.195Z,7.60
2023-05-19T02:26:37.041Z,7.60
2023-05-19T02:26:46.432Z,7.60
2023-05-19T02:26:55.831Z,7.60
2023-05-19T02:27:05.219Z,7.60
2023-05-19T02:27:14.625Z,7.60
2023-05-19T02:27:23.982Z,7.60
2023-05-19T02:27:42.798Z,7.60
2023-05-19T02:27:52.187Z,7.60
2023-05-19T02:28:01.621Z,7.60
2023-05-19T02:28:10.982Z,7.60
2023-05-19T02:28:20.380Z,7.60
2023-05-19T02:28:29.780Z,7.70
2023-05-19T02:28:48.654Z,7.60
2023-05-19T02:28:58.065Z,7.60
2023-05-19T02:29:07.435Z,7.60
2023-05-19T02:29:16.820Z,7.60
2023-05-19T02:29:26.220Z,7.60
2023-05-19T02:29:35.622Z,7.60
2023-05-19T02:29:54.388Z,7.60
2023-05-19T02:30:03.779Z,7.60
2023-05-19T02:30:13.232Z,7.60
2023-05-19T02:30:22.599Z,7.60
2023-05-19T02:30:32.455Z,7.60
2023-05-19T02:30:41.408Z,7.60
2023-05-19T02:31:00.186Z,7.60
2023-05-19T02:31:09.585Z,7.60
2023-05-19T02:31:19.064Z,7.60
2023-05-19T02:31:28.439Z,7.60
2023-05-19T02:31:37.808Z,7.60
2023-05-19T02:31:47.182Z,7.60
2023-05-19T02:32:06.033Z,7.60
2023-05-19T02:32:15.391Z,7.60
2023-05-19T02:32:24.781Z,7.60
2023-05-19T02:32:34.203Z,7.60
2023-05-19T02:32:43.615Z,7.60
2023-05-19T02:32:53.041Z,7.60
2023-05-19T02:33:11.854Z,7.60
2023-05-19T02:33:21.200Z,7.60
2023-05-19T02:33:30.600Z,7.60
2023-05-19T02:33:39.975Z,7.60
2023-05-19T02:33:49.370Z,7.60
2023-05-19T02:33:58.750Z,7.60
2023-05-19T02:34:17.555Z,7.60
2023-05-19T02:34:26.953Z,7.60
2023-05-19T02:34:36.332Z,7.60
2023-05-19T02:34:45.797Z,7.60
2023-05-19T02:34:55.115Z,7.60
2023-05-19T02:35:04.507Z,7.60
2023-05-19T02:35:23.277Z,7.50
2023-05-19T02:35:32.674Z,7.60
2023-05-19T02:35:42.076Z,7.60
2023-05-19T02:35:51.464Z,7.60